sensor_id;sensor_type;location;lat;lon;timestamp;P1;durP1;ratioP1;P2;durP2;ratioP2
16900;SDS011;8567;52.540;6.434;2024-01-06T00:01:05;3.80;;;3.60;;
16900;SDS011;8567;52.540;6.434;2024-01-06T00:03:37;4.28;;;4.07;;
16900;SDS011;8567;52.540;6.434;2024-01-06T00:06:04;4.38;;;4.18;;
16900;SDS011;8567;52.540;6.434;2024-01-06T00:08:32;3.95;;;3.75;;
16900;SDS011;8567;52.540;6.434;2024-01-06T00:10:59;3.78;;;3.58;;
16900;SDS011;8567;52.540;6.434;2024-01-06T00:13:27;3.55;;;3.45;;
16900;SDS011;8567;52.540;6.434;2024-01-06T00:15:55;3.88;;;3.67;;
16900;SDS011;8567;52.540;6.434;2024-01-06T00:18:23;4.55;;;4.35;;
16900;SDS011;8567;52.540;6.434;2024-01-06T00:20:50;4.70;;;4.50;;
16900;SDS011;8567;52.540;6.434;2024-01-06T00:23:17;3.95;;;3.75;;
16900;SDS011;8567;52.540;6.434;2024-01-06T00:25:44;4.07;;;3.88;;
16900;SDS011;8567;52.540;6.434;2024-01-06T00:28:11;4.90;;;4.70;;
16900;SDS011;8567;52.540;6.434;2024-01-06T00:30:37;4.07;;;3.88;;
16900;SDS011;8567;52.540;6.434;2024-01-06T00:33:04;4.00;;;3.80;;
16900;SDS011;8567;52.540;6.434;2024-01-06T00:35:33;3.75;;;3.63;;
16900;SDS011;8567;52.540;6.434;2024-01-06T00:38:00;4.07;;;3.88;;
16900;SDS011;8567;52.540;6.434;2024-01-06T00:40:27;4.32;;;4.13;;
16900;SDS011;8567;52.540;6.434;2024-01-06T00:42:54;3.72;;;3.53;;
16900;SDS011;8567;52.540;6.434;2024-01-06T00:45:21;3.92;;;3.72;;
16900;SDS011;8567;52.540;6.434;2024-01-06T00:47:48;3.78;;;3.58;;
16900;SDS011;8567;52.540;6.434;2024-01-06T00:50:15;3.50;;;3.38;;
16900;SDS011;8567;52.540;6.434;2024-01-06T00:52:45;3.63;;;3.50;;
16900;SDS011;8567;52.540;6.434;2024-01-06T00:55:12;3.70;;;3.53;;
16900;SDS011;8567;52.540;6.434;2024-01-06T00:57:39;3.67;;;3.47;;
16900;SDS011;8567;52.540;6.434;2024-01-06T01:00:06;3.42;;;3.28;;
16900;SDS011;8567;52.540;6.434;2024-01-06T01:02:33;3.50;;;3.40;;
16900;SDS011;8567;52.540;6.434;2024-01-06T01:05:00;4.13;;;3.83;;
16900;SDS011;8567;52.540;6.434;2024-01-06T01:07:28;3.65;;;3.47;;
16900;SDS011;8567;52.540;6.434;2024-01-06T01:09:57;3.97;;;3.78;;
16900;SDS011;8567;52.540;6.434;2024-01-06T01:12:24;3.70;;;3.50;;
16900;SDS011;8567;52.540;6.434;2024-01-06T01:14:51;3.58;;;3.45;;
16900;SDS011;8567;52.540;6.434;2024-01-06T01:17:18;4.18;;;3.97;;
16900;SDS011;8567;52.540;6.434;2024-01-06T01:19:45;3.92;;;3.72;;
16900;SDS011;8567;52.540;6.434;2024-01-06T01:22:12;3.65;;;3.55;;
16900;SDS011;8567;52.540;6.434;2024-01-06T01:24:40;3.92;;;3.72;;
16900;SDS011;8567;52.540;6.434;2024-01-06T01:27:09;3.75;;;3.55;;
16900;SDS011;8567;52.540;6.434;2024-01-06T01:29:36;4.10;;;3.90;;
16900;SDS011;8567;52.540;6.434;2024-01-06T01:32:03;4.10;;;3.90;;
16900;SDS011;8567;52.540;6.434;2024-01-06T01:34:31;3.83;;;3.63;;
16900;SDS011;8567;52.540;6.434;2024-01-06T01:36:59;4.50;;;4.20;;
16900;SDS011;8567;52.540;6.434;2024-01-06T01:39:26;4.15;;;3.95;;
16900;SDS011;8567;52.540;6.434;2024-01-06T01:41:52;4.22;;;3.92;;
16900;SDS011;8567;52.540;6.434;2024-01-06T01:44:21;3.70;;;3.50;;
16900;SDS011;8567;52.540;6.434;2024-01-06T01:46:47;4.25;;;4.05;;
16900;SDS011;8567;52.540;6.434;2024-01-06T01:49:15;3.97;;;3.78;;
16900;SDS011;8567;52.540;6.434;2024-01-06T01:51:42;4.28;;;4.07;;
16900;SDS011;8567;52.540;6.434;2024-01-06T01:54:09;3.92;;;3.72;;
16900;SDS011;8567;52.540;6.434;2024-01-06T01:56:36;4.40;;;4.20;;
16900;SDS011;8567;52.540;6.434;2024-01-06T01:59:09;4.03;;;3.83;;
16900;SDS011;8567;52.540;6.434;2024-01-06T02:01:38;4.00;;;3.80;;
16900;SDS011;8567;52.540;6.434;2024-01-06T02:04:07;3.90;;;3.70;;
16900;SDS011;8567;52.540;6.434;2024-01-06T02:06:34;4.35;;;4.15;;
16900;SDS011;8567;52.540;6.434;2024-01-06T02:09:01;4.05;;;3.85;;
16900;SDS011;8567;52.540;6.434;2024-01-06T02:11:28;4.00;;;3.80;;
16900;SDS011;8567;52.540;6.434;2024-01-06T02:13:55;3.85;;;3.67;;
16900;SDS011;8567;52.540;6.434;2024-01-06T02:16:22;3.80;;;3.60;;
16900;SDS011;8567;52.540;6.434;2024-01-06T02:18:50;3.67;;;3.55;;
16900;SDS011;8567;52.540;6.434;2024-01-06T02:21:17;3.88;;;3.67;;
16900;SDS011;8567;52.540;6.434;2024-01-06T02:23:48;3.38;;;3.28;;
16900;SDS011;8567;52.540;6.434;2024-01-06T02:26:15;3.47;;;3.38;;
16900;SDS011;8567;52.540;6.434;2024-01-06T02:28:42;3.22;;;3.13;;
16900;SDS011;8567;52.540;6.434;2024-01-06T02:31:12;3.42;;;3.28;;
16900;SDS011;8567;52.540;6.434;2024-01-06T02:33:39;3.85;;;3.65;;
16900;SDS011;8567;52.540;6.434;2024-01-06T02:36:06;3.72;;;3.53;;
16900;SDS011;8567;52.540;6.434;2024-01-06T02:38:33;4.07;;;3.88;;
16900;SDS011;8567;52.540;6.434;2024-01-06T02:41:01;3.80;;;3.60;;
16900;SDS011;8567;52.540;6.434;2024-01-06T02:43:29;3.53;;;3.42;;
16900;SDS011;8567;52.540;6.434;2024-01-06T02:45:55;4.05;;;3.85;;
16900;SDS011;8567;52.540;6.434;2024-01-06T02:48:22;4.22;;;4.03;;
16900;SDS011;8567;52.540;6.434;2024-01-06T02:50:49;4.07;;;3.88;;
16900;SDS011;8567;52.540;6.434;2024-01-06T02:53:16;3.83;;;3.65;;
16900;SDS011;8567;52.540;6.434;2024-01-06T02:55:43;4.25;;;4.05;;
16900;SDS011;8567;52.540;6.434;2024-01-06T02:58:13;3.60;;;3.40;;
16900;SDS011;8567;52.540;6.434;2024-01-06T03:00:39;3.85;;;3.65;;
16900;SDS011;8567;52.540;6.434;2024-01-06T03:03:10;3.55;;;3.45;;
16900;SDS011;8567;52.540;6.434;2024-01-06T03:05:39;3.80;;;3.60;;
16900;SDS011;8567;52.540;6.434;2024-01-06T03:08:14;4.20;;;4.00;;
16900;SDS011;8567;52.540;6.434;2024-01-06T03:10:41;3.83;;;3.63;;
16900;SDS011;8567;52.540;6.434;2024-01-06T03:13:08;3.60;;;3.42;;
16900;SDS011;8567;52.540;6.434;2024-01-06T03:15:36;3.75;;;3.65;;
16900;SDS011;8567;52.540;6.434;2024-01-06T03:18:04;4.03;;;3.83;;
16900;SDS011;8567;52.540;6.434;2024-01-06T03:20:31;3.60;;;3.50;;
16900;SDS011;8567;52.540;6.434;2024-01-06T03:22:58;4.00;;;3.80;;
16900;SDS011;8567;52.540;6.434;2024-01-06T03:25:25;3.83;;;3.70;;
16900;SDS011;8567;52.540;6.434;2024-01-06T03:27:51;3.58;;;3.42;;
16900;SDS011;8567;52.540;6.434;2024-01-06T03:30:18;3.28;;;3.17;;
16900;SDS011;8567;52.540;6.434;2024-01-06T03:32:47;3.70;;;3.50;;
16900;SDS011;8567;52.540;6.434;2024-01-06T03:35:13;3.53;;;3.42;;
16900;SDS011;8567;52.540;6.434;2024-01-06T03:37:41;4.43;;;4.22;;
16900;SDS011;8567;52.540;6.434;2024-01-06T03:40:12;4.25;;;4.05;;
16900;SDS011;8567;52.540;6.434;2024-01-06T03:42:39;3.72;;;3.53;;
16900;SDS011;8567;52.540;6.434;2024-01-06T03:45:06;3.40;;;3.30;;
16900;SDS011;8567;52.540;6.434;2024-01-06T03:47:33;3.33;;;3.22;;
16900;SDS011;8567;52.540;6.434;2024-01-06T03:50:01;3.85;;;3.70;;
16900;SDS011;8567;52.540;6.434;2024-01-06T03:52:28;3.58;;;3.47;;
16900;SDS011;8567;52.540;6.434;2024-01-06T03:54:55;3.90;;;3.70;;
16900;SDS011;8567;52.540;6.434;2024-01-06T03:57:22;3.80;;;3.60;;
16900;SDS011;8567;52.540;6.434;2024-01-06T03:59:49;3.78;;;3.60;;
16900;SDS011;8567;52.540;6.434;2024-01-06T04:02:16;3.65;;;3.53;;
16900;SDS011;8567;52.540;6.434;2024-01-06T04:04:43;3.67;;;3.47;;
16900;SDS011;8567;52.540;6.434;2024-01-06T04:07:11;3.83;;;3.70;;
16900;SDS011;8567;52.540;6.434;2024-01-06T04:09:41;3.60;;;3.50;;
16900;SDS011;8567;52.540;6.434;2024-01-06T04:12:08;4.07;;;3.88;;
16900;SDS011;8567;52.540;6.434;2024-01-06T04:14:35;3.60;;;3.50;;
16900;SDS011;8567;52.540;6.434;2024-01-06T04:17:02;3.60;;;3.50;;
16900;SDS011;8567;52.540;6.434;2024-01-06T04:19:29;4.38;;;4.18;;
16900;SDS011;8567;52.540;6.434;2024-01-06T04:21:56;4.07;;;3.88;;
16900;SDS011;8567;52.540;6.434;2024-01-06T04:24:24;3.83;;;3.63;;
16900;SDS011;8567;52.540;6.434;2024-01-06T04:26:51;3.63;;;3.42;;
16900;SDS011;8567;52.540;6.434;2024-01-06T04:29:18;3.63;;;3.45;;
16900;SDS011;8567;52.540;6.434;2024-01-06T04:31:45;3.67;;;3.53;;
16900;SDS011;8567;52.540;6.434;2024-01-06T04:34:12;3.92;;;3.72;;
16900;SDS011;8567;52.540;6.434;2024-01-06T04:36:39;4.03;;;3.83;;
16900;SDS011;8567;52.540;6.434;2024-01-06T04:39:06;3.88;;;3.70;;
16900;SDS011;8567;52.540;6.434;2024-01-06T04:41:34;3.15;;;3.05;;
16900;SDS011;8567;52.540;6.434;2024-01-06T04:44:01;4.45;;;4.25;;
16900;SDS011;8567;52.540;6.434;2024-01-06T04:46:28;3.67;;;3.47;;
16900;SDS011;8567;52.540;6.434;2024-01-06T04:48:55;3.58;;;3.42;;
16900;SDS011;8567;52.540;6.434;2024-01-06T04:51:22;3.92;;;3.72;;
16900;SDS011;8567;52.540;6.434;2024-01-06T04:53:49;3.60;;;3.50;;
16900;SDS011;8567;52.540;6.434;2024-01-06T04:56:18;3.80;;;3.60;;
16900;SDS011;8567;52.540;6.434;2024-01-06T04:58:46;3.80;;;3.70;;
16900;SDS011;8567;52.540;6.434;2024-01-06T05:01:13;3.53;;;3.42;;
16900;SDS011;8567;52.540;6.434;2024-01-06T05:03:40;3.90;;;3.70;;
16900;SDS011;8567;52.540;6.434;2024-01-06T05:06:07;3.53;;;3.42;;
16900;SDS011;8567;52.540;6.434;2024-01-06T05:08:34;4.75;;;3.75;;
16900;SDS011;8567;52.540;6.434;2024-01-06T05:11:04;3.92;;;3.72;;
16900;SDS011;8567;52.540;6.434;2024-01-06T05:13:32;3.30;;;3.20;;
16900;SDS011;8567;52.540;6.434;2024-01-06T05:16:00;3.70;;;3.55;;
16900;SDS011;8567;52.540;6.434;2024-01-06T05:18:28;3.88;;;3.72;;
16900;SDS011;8567;52.540;6.434;2024-01-06T05:20:56;3.65;;;3.55;;
16900;SDS011;8567;52.540;6.434;2024-01-06T05:23:23;4.03;;;3.83;;
16900;SDS011;8567;52.540;6.434;2024-01-06T05:25:50;4.00;;;3.80;;
16900;SDS011;8567;52.540;6.434;2024-01-06T05:28:17;4.13;;;3.92;;
16900;SDS011;8567;52.540;6.434;2024-01-06T05:30:44;3.45;;;3.33;;
16900;SDS011;8567;52.540;6.434;2024-01-06T05:33:13;3.78;;;3.58;;
16900;SDS011;8567;52.540;6.434;2024-01-06T05:35:42;3.15;;;3.05;;
16900;SDS011;8567;52.540;6.434;2024-01-06T05:38:09;3.70;;;3.55;;
16900;SDS011;8567;52.540;6.434;2024-01-06T05:40:35;3.92;;;3.72;;
16900;SDS011;8567;52.540;6.434;2024-01-06T05:43:02;4.00;;;3.80;;
16900;SDS011;8567;52.540;6.434;2024-01-06T05:45:30;4.28;;;4.07;;
16900;SDS011;8567;52.540;6.434;2024-01-06T05:47:58;3.75;;;3.55;;
16900;SDS011;8567;52.540;6.434;2024-01-06T05:50:26;4.15;;;3.95;;
16900;SDS011;8567;52.540;6.434;2024-01-06T05:52:53;3.85;;;3.67;;
16900;SDS011;8567;52.540;6.434;2024-01-06T05:55:20;4.30;;;4.10;;
16900;SDS011;8567;52.540;6.434;2024-01-06T05:57:47;4.07;;;3.88;;
16900;SDS011;8567;52.540;6.434;2024-01-06T06:00:15;3.75;;;3.58;;
16900;SDS011;8567;52.540;6.434;2024-01-06T06:02:42;3.72;;;3.53;;
16900;SDS011;8567;52.540;6.434;2024-01-06T06:05:09;3.70;;;3.60;;
16900;SDS011;8567;52.540;6.434;2024-01-06T06:07:37;3.58;;;3.38;;
16900;SDS011;8567;52.540;6.434;2024-01-06T06:10:05;3.90;;;3.70;;
16900;SDS011;8567;52.540;6.434;2024-01-06T06:12:33;3.90;;;3.70;;
16900;SDS011;8567;52.540;6.434;2024-01-06T06:15:00;3.42;;;3.33;;
16900;SDS011;8567;52.540;6.434;2024-01-06T06:17:28;3.67;;;3.50;;
16900;SDS011;8567;52.540;6.434;2024-01-06T06:19:55;3.83;;;3.63;;
16900;SDS011;8567;52.540;6.434;2024-01-06T06:22:23;3.50;;;3.40;;
16900;SDS011;8567;52.540;6.434;2024-01-06T06:24:52;4.10;;;3.90;;
16900;SDS011;8567;52.540;6.434;2024-01-06T06:27:19;3.50;;;3.40;;
16900;SDS011;8567;52.540;6.434;2024-01-06T06:29:46;3.47;;;3.38;;
16900;SDS011;8567;52.540;6.434;2024-01-06T06:32:13;3.85;;;3.65;;
16900;SDS011;8567;52.540;6.434;2024-01-06T06:34:40;3.70;;;3.50;;
16900;SDS011;8567;52.540;6.434;2024-01-06T06:37:08;3.50;;;3.30;;
16900;SDS011;8567;52.540;6.434;2024-01-06T06:39:35;3.70;;;3.55;;
16900;SDS011;8567;52.540;6.434;2024-01-06T06:42:03;3.88;;;3.70;;
16900;SDS011;8567;52.540;6.434;2024-01-06T06:44:30;3.25;;;3.15;;
16900;SDS011;8567;52.540;6.434;2024-01-06T06:46:57;3.78;;;3.67;;
16900;SDS011;8567;52.540;6.434;2024-01-06T06:49:24;3.72;;;3.53;;
16900;SDS011;8567;52.540;6.434;2024-01-06T06:51:51;3.47;;;3.33;;
16900;SDS011;8567;52.540;6.434;2024-01-06T06:54:18;3.40;;;3.30;;
16900;SDS011;8567;52.540;6.434;2024-01-06T06:56:45;3.70;;;3.53;;
16900;SDS011;8567;52.540;6.434;2024-01-06T06:59:14;3.65;;;3.45;;
16900;SDS011;8567;52.540;6.434;2024-01-06T07:01:40;3.50;;;3.40;;
16900;SDS011;8567;52.540;6.434;2024-01-06T07:04:07;3.55;;;3.40;;
16900;SDS011;8567;52.540;6.434;2024-01-06T07:06:34;3.70;;;3.50;;
16900;SDS011;8567;52.540;6.434;2024-01-06T07:09:01;3.55;;;3.45;;
16900;SDS011;8567;52.540;6.434;2024-01-06T07:11:30;3.70;;;3.40;;
16900;SDS011;8567;52.540;6.434;2024-01-06T07:13:56;5.55;;;5.05;;
16900;SDS011;8567;52.540;6.434;2024-01-06T07:16:25;5.22;;;4.78;;
16900;SDS011;8567;52.540;6.434;2024-01-06T07:18:51;6.03;;;5.53;;
16900;SDS011;8567;52.540;6.434;2024-01-06T07:21:18;10.93;;;6.05;;
16900;SDS011;8567;52.540;6.434;2024-01-06T07:23:45;7.35;;;5.97;;
16900;SDS011;8567;52.540;6.434;2024-01-06T07:26:12;8.02;;;6.40;;
16900;SDS011;8567;52.540;6.434;2024-01-06T07:28:39;12.75;;;7.20;;
16900;SDS011;8567;52.540;6.434;2024-01-06T07:31:06;9.75;;;5.72;;
16900;SDS011;8567;52.540;6.434;2024-01-06T07:33:34;9.18;;;6.15;;
16900;SDS011;8567;52.540;6.434;2024-01-06T07:36:01;8.00;;;6.57;;
16900;SDS011;8567;52.540;6.434;2024-01-06T07:38:28;8.00;;;5.55;;
16900;SDS011;8567;52.540;6.434;2024-01-06T07:40:56;12.73;;;7.22;;
16900;SDS011;8567;52.540;6.434;2024-01-06T07:43:22;13.77;;;7.65;;
16900;SDS011;8567;52.540;6.434;2024-01-06T07:45:49;13.75;;;7.70;;
16900;SDS011;8567;52.540;6.434;2024-01-06T07:48:16;15.70;;;7.47;;
16900;SDS011;8567;52.540;6.434;2024-01-06T07:50:44;15.07;;;7.85;;
16900;SDS011;8567;52.540;6.434;2024-01-06T07:53:11;20.42;;;9.88;;
16900;SDS011;8567;52.540;6.434;2024-01-06T07:55:39;22.85;;;10.43;;
16900;SDS011;8567;52.540;6.434;2024-01-06T07:58:06;15.02;;;8.40;;
16900;SDS011;8567;52.540;6.434;2024-01-06T08:00:33;18.52;;;9.20;;
16900;SDS011;8567;52.540;6.434;2024-01-06T08:02:59;12.25;;;8.05;;
16900;SDS011;8567;52.540;6.434;2024-01-06T08:05:27;12.35;;;7.18;;
16900;SDS011;8567;52.540;6.434;2024-01-06T08:07:55;10.65;;;6.88;;
16900;SDS011;8567;52.540;6.434;2024-01-06T08:10:22;12.45;;;7.28;;
16900;SDS011;8567;52.540;6.434;2024-01-06T08:12:49;12.63;;;7.15;;
16900;SDS011;8567;52.540;6.434;2024-01-06T08:15:15;10.18;;;7.50;;
16900;SDS011;8567;52.540;6.434;2024-01-06T08:17:41;9.82;;;7.10;;
16900;SDS011;8567;52.540;6.434;2024-01-06T08:20:09;8.32;;;6.90;;
16900;SDS011;8567;52.540;6.434;2024-01-06T08:22:36;7.70;;;6.90;;
16900;SDS011;8567;52.540;6.434;2024-01-06T08:25:04;9.57;;;6.15;;
16900;SDS011;8567;52.540;6.434;2024-01-06T08:27:32;6.82;;;5.43;;
16900;SDS011;8567;52.540;6.434;2024-01-06T08:29:59;9.00;;;5.60;;
16900;SDS011;8567;52.540;6.434;2024-01-06T08:32:27;8.23;;;5.80;;
16900;SDS011;8567;52.540;6.434;2024-01-06T08:34:53;7.25;;;5.40;;
16900;SDS011;8567;52.540;6.434;2024-01-06T08:37:21;6.10;;;5.50;;
16900;SDS011;8567;52.540;6.434;2024-01-06T08:39:48;5.93;;;5.38;;
16900;SDS011;8567;52.540;6.434;2024-01-06T08:42:16;5.38;;;4.95;;
16900;SDS011;8567;52.540;6.434;2024-01-06T08:44:43;5.38;;;4.88;;
16900;SDS011;8567;52.540;6.434;2024-01-06T08:47:10;5.45;;;4.95;;
16900;SDS011;8567;52.540;6.434;2024-01-06T08:49:38;5.40;;;4.90;;
16900;SDS011;8567;52.540;6.434;2024-01-06T08:52:05;4.68;;;4.18;;
16900;SDS011;8567;52.540;6.434;2024-01-06T08:54:32;6.00;;;4.53;;
16900;SDS011;8567;52.540;6.434;2024-01-06T08:56:59;5.43;;;4.93;;
16900;SDS011;8567;52.540;6.434;2024-01-06T08:59:28;4.65;;;4.32;;
16900;SDS011;8567;52.540;6.434;2024-01-06T09:01:54;5.50;;;5.00;;
16900;SDS011;8567;52.540;6.434;2024-01-06T09:04:21;4.65;;;4.22;;
16900;SDS011;8567;52.540;6.434;2024-01-06T09:06:56;4.60;;;4.20;;
16900;SDS011;8567;52.540;6.434;2024-01-06T09:09:23;4.90;;;4.40;;
16900;SDS011;8567;52.540;6.434;2024-01-06T09:11:50;4.65;;;4.25;;
16900;SDS011;8567;52.540;6.434;2024-01-06T09:14:18;4.22;;;3.67;;
16900;SDS011;8567;52.540;6.434;2024-01-06T09:16:46;3.95;;;3.75;;
16900;SDS011;8567;52.540;6.434;2024-01-06T09:19:13;4.40;;;4.00;;
16900;SDS011;8567;52.540;6.434;2024-01-06T09:21:40;3.83;;;3.53;;
16900;SDS011;8567;52.540;6.434;2024-01-06T09:24:07;3.58;;;3.38;;
16900;SDS011;8567;52.540;6.434;2024-01-06T09:26:34;4.40;;;4.10;;
16900;SDS011;8567;52.540;6.434;2024-01-06T09:29:01;4.18;;;3.88;;
16900;SDS011;8567;52.540;6.434;2024-01-06T09:31:29;4.35;;;4.05;;
16900;SDS011;8567;52.540;6.434;2024-01-06T09:33:59;4.40;;;4.07;;
16900;SDS011;8567;52.540;6.434;2024-01-06T09:36:27;4.10;;;3.90;;
16900;SDS011;8567;52.540;6.434;2024-01-06T09:38:54;4.28;;;4.07;;
16900;SDS011;8567;52.540;6.434;2024-01-06T09:41:21;4.07;;;3.80;;
16900;SDS011;8567;52.540;6.434;2024-01-06T09:43:49;4.50;;;4.20;;
16900;SDS011;8567;52.540;6.434;2024-01-06T09:46:17;4.43;;;4.13;;
16900;SDS011;8567;52.540;6.434;2024-01-06T09:48:51;4.18;;;3.97;;
16900;SDS011;8567;52.540;6.434;2024-01-06T09:51:21;4.10;;;3.90;;
16900;SDS011;8567;52.540;6.434;2024-01-06T09:53:52;3.90;;;3.70;;
16900;SDS011;8567;52.540;6.434;2024-01-06T09:56:24;3.92;;;3.63;;
16900;SDS011;8567;52.540;6.434;2024-01-06T09:58:52;3.90;;;3.70;;
16900;SDS011;8567;52.540;6.434;2024-01-06T10:01:19;4.07;;;3.78;;
16900;SDS011;8567;52.540;6.434;2024-01-06T10:03:47;4.03;;;3.83;;
16900;SDS011;8567;52.540;6.434;2024-01-06T10:06:14;4.13;;;3.92;;
16900;SDS011;8567;52.540;6.434;2024-01-06T10:08:43;3.92;;;3.72;;
16900;SDS011;8567;52.540;6.434;2024-01-06T10:11:10;4.05;;;3.85;;
16900;SDS011;8567;52.540;6.434;2024-01-06T10:13:38;3.58;;;3.38;;
16900;SDS011;8567;52.540;6.434;2024-01-06T10:16:05;3.75;;;3.58;;
16900;SDS011;8567;52.540;6.434;2024-01-06T10:18:32;4.13;;;3.92;;
16900;SDS011;8567;52.540;6.434;2024-01-06T10:21:03;3.65;;;3.47;;
16900;SDS011;8567;52.540;6.434;2024-01-06T10:23:31;3.97;;;3.78;;
16900;SDS011;8567;52.540;6.434;2024-01-06T10:25:59;3.60;;;3.38;;
16900;SDS011;8567;52.540;6.434;2024-01-06T10:28:26;3.88;;;3.67;;
16900;SDS011;8567;52.540;6.434;2024-01-06T10:30:54;4.13;;;3.92;;
16900;SDS011;8567;52.540;6.434;2024-01-06T10:33:22;3.88;;;3.67;;
16900;SDS011;8567;52.540;6.434;2024-01-06T10:35:49;3.83;;;3.63;;
16900;SDS011;8567;52.540;6.434;2024-01-06T10:38:16;3.78;;;3.58;;
16900;SDS011;8567;52.540;6.434;2024-01-06T10:40:55;3.75;;;3.55;;
16900;SDS011;8567;52.540;6.434;2024-01-06T10:43:25;3.50;;;3.30;;
16900;SDS011;8567;52.540;6.434;2024-01-06T10:45:54;3.72;;;3.53;;
16900;SDS011;8567;52.540;6.434;2024-01-06T10:48:24;4.05;;;3.75;;
16900;SDS011;8567;52.540;6.434;2024-01-06T10:50:51;3.30;;;3.20;;
16900;SDS011;8567;52.540;6.434;2024-01-06T10:53:20;3.58;;;3.38;;
16900;SDS011;8567;52.540;6.434;2024-01-06T10:55:49;3.78;;;3.58;;
16900;SDS011;8567;52.540;6.434;2024-01-06T10:58:18;4.00;;;3.80;;
16900;SDS011;8567;52.540;6.434;2024-01-06T11:00:47;3.67;;;3.47;;
16900;SDS011;8567;52.540;6.434;2024-01-06T11:03:14;3.95;;;3.75;;
16900;SDS011;8567;52.540;6.434;2024-01-06T11:05:41;4.18;;;3.97;;
16900;SDS011;8567;52.540;6.434;2024-01-06T11:08:08;4.15;;;3.95;;
16900;SDS011;8567;52.540;6.434;2024-01-06T11:10:36;3.67;;;3.53;;
16900;SDS011;8567;52.540;6.434;2024-01-06T11:13:06;4.22;;;4.03;;
16900;SDS011;8567;52.540;6.434;2024-01-06T11:15:43;3.70;;;3.53;;
16900;SDS011;8567;52.540;6.434;2024-01-06T11:18:32;3.63;;;3.33;;
16900;SDS011;8567;52.540;6.434;2024-01-06T11:26:38;3.58;;;3.40;;
16900;SDS011;8567;52.540;6.434;2024-01-06T11:29:05;3.53;;;3.33;;
16900;SDS011;8567;52.540;6.434;2024-01-06T11:31:36;3.28;;;3.17;;
16900;SDS011;8567;52.540;6.434;2024-01-06T11:34:14;3.88;;;3.67;;
16900;SDS011;8567;52.540;6.434;2024-01-06T11:36:43;3.28;;;3.17;;
16900;SDS011;8567;52.540;6.434;2024-01-06T11:42:03;3.65;;;3.45;;
16900;SDS011;8567;52.540;6.434;2024-01-06T11:44:33;3.67;;;3.47;;
16900;SDS011;8567;52.540;6.434;2024-01-06T11:47:00;3.08;;;2.97;;
16900;SDS011;8567;52.540;6.434;2024-01-06T11:49:30;3.95;;;3.75;;
16900;SDS011;8567;52.540;6.434;2024-01-06T11:51:57;3.97;;;3.78;;
16900;SDS011;8567;52.540;6.434;2024-01-06T11:54:24;3.60;;;3.45;;
16900;SDS011;8567;52.540;6.434;2024-01-06T11:56:51;3.40;;;3.30;;
16900;SDS011;8567;52.540;6.434;2024-01-06T11:59:19;3.55;;;3.45;;
16900;SDS011;8567;52.540;6.434;2024-01-06T12:01:46;3.92;;;3.72;;
16900;SDS011;8567;52.540;6.434;2024-01-06T12:04:13;3.65;;;3.55;;
16900;SDS011;8567;52.540;6.434;2024-01-06T12:06:43;4.05;;;3.85;;
16900;SDS011;8567;52.540;6.434;2024-01-06T12:09:11;3.20;;;3.10;;
16900;SDS011;8567;52.540;6.434;2024-01-06T12:11:40;3.75;;;3.55;;
16900;SDS011;8567;52.540;6.434;2024-01-06T12:14:10;4.05;;;3.85;;
16900;SDS011;8567;52.540;6.434;2024-01-06T12:16:38;3.65;;;3.50;;
16900;SDS011;8567;52.540;6.434;2024-01-06T12:19:04;3.38;;;3.17;;
16900;SDS011;8567;52.540;6.434;2024-01-06T12:21:31;3.60;;;3.50;;
16900;SDS011;8567;52.540;6.434;2024-01-06T12:24:15;3.38;;;3.28;;
16900;SDS011;8567;52.540;6.434;2024-01-06T12:26:45;3.42;;;3.33;;
16900;SDS011;8567;52.540;6.434;2024-01-06T12:29:12;3.35;;;3.20;;
16900;SDS011;8567;52.540;6.434;2024-01-06T12:31:40;3.95;;;3.75;;
16900;SDS011;8567;52.540;6.434;2024-01-06T12:34:07;3.67;;;3.53;;
16900;SDS011;8567;52.540;6.434;2024-01-06T12:36:35;3.22;;;3.13;;
16900;SDS011;8567;52.540;6.434;2024-01-06T12:39:04;3.60;;;3.50;;
16900;SDS011;8567;52.540;6.434;2024-01-06T12:41:32;3.67;;;3.55;;
16900;SDS011;8567;52.540;6.434;2024-01-06T12:44:02;3.78;;;3.63;;
16900;SDS011;8567;52.540;6.434;2024-01-06T12:46:29;3.97;;;3.78;;
16900;SDS011;8567;52.540;6.434;2024-01-06T12:48:57;3.40;;;3.30;;
16900;SDS011;8567;52.540;6.434;2024-01-06T12:51:23;3.83;;;3.63;;
16900;SDS011;8567;52.540;6.434;2024-01-06T12:53:50;3.63;;;3.53;;
16900;SDS011;8567;52.540;6.434;2024-01-06T12:56:17;4.13;;;3.92;;
16900;SDS011;8567;52.540;6.434;2024-01-06T12:58:46;3.47;;;3.38;;
16900;SDS011;8567;52.540;6.434;2024-01-06T13:01:13;3.33;;;3.22;;
16900;SDS011;8567;52.540;6.434;2024-01-06T13:03:40;3.53;;;3.33;;
16900;SDS011;8567;52.540;6.434;2024-01-06T13:06:06;3.60;;;3.50;;
16900;SDS011;8567;52.540;6.434;2024-01-06T13:08:34;3.47;;;3.38;;
16900;SDS011;8567;52.540;6.434;2024-01-06T13:11:02;3.50;;;3.40;;
16900;SDS011;8567;52.540;6.434;2024-01-06T13:13:29;3.78;;;3.63;;
16900;SDS011;8567;52.540;6.434;2024-01-06T13:15:59;3.88;;;3.70;;
16900;SDS011;8567;52.540;6.434;2024-01-06T13:18:27;3.75;;;3.55;;
16900;SDS011;8567;52.540;6.434;2024-01-06T13:20:54;3.67;;;3.53;;
16900;SDS011;8567;52.540;6.434;2024-01-06T13:23:21;3.58;;;3.47;;
16900;SDS011;8567;52.540;6.434;2024-01-06T13:25:49;3.70;;;3.58;;
16900;SDS011;8567;52.540;6.434;2024-01-06T13:28:15;3.42;;;3.33;;
16900;SDS011;8567;52.540;6.434;2024-01-06T13:30:42;3.42;;;3.33;;
16900;SDS011;8567;52.540;6.434;2024-01-06T13:33:10;3.85;;;3.65;;
16900;SDS011;8567;52.540;6.434;2024-01-06T13:35:37;3.47;;;3.38;;
16900;SDS011;8567;52.540;6.434;2024-01-06T13:38:05;3.90;;;3.70;;
16900;SDS011;8567;52.540;6.434;2024-01-06T13:40:34;3.42;;;3.30;;
16900;SDS011;8567;52.540;6.434;2024-01-06T13:43:00;4.13;;;3.92;;
16900;SDS011;8567;52.540;6.434;2024-01-06T13:45:29;3.95;;;3.75;;
16900;SDS011;8567;52.540;6.434;2024-01-06T13:47:56;4.15;;;3.95;;
16900;SDS011;8567;52.540;6.434;2024-01-06T13:50:25;3.28;;;3.17;;
16900;SDS011;8567;52.540;6.434;2024-01-06T13:52:52;3.85;;;3.72;;
16900;SDS011;8567;52.540;6.434;2024-01-06T13:55:19;3.83;;;3.63;;
16900;SDS011;8567;52.540;6.434;2024-01-06T13:57:46;3.60;;;3.40;;
16900;SDS011;8567;52.540;6.434;2024-01-06T14:00:14;3.63;;;3.42;;
16900;SDS011;8567;52.540;6.434;2024-01-06T14:02:43;4.15;;;3.95;;
16900;SDS011;8567;52.540;6.434;2024-01-06T14:05:11;4.22;;;4.03;;
16900;SDS011;8567;52.540;6.434;2024-01-06T14:07:40;3.42;;;3.33;;
16900;SDS011;8567;52.540;6.434;2024-01-06T14:10:10;3.45;;;3.35;;
16900;SDS011;8567;52.540;6.434;2024-01-06T14:12:39;3.92;;;3.72;;
16900;SDS011;8567;52.540;6.434;2024-01-06T14:15:06;4.15;;;3.95;;
16900;SDS011;8567;52.540;6.434;2024-01-06T14:17:34;3.78;;;3.58;;
16900;SDS011;8567;52.540;6.434;2024-01-06T14:20:01;3.63;;;3.53;;
16900;SDS011;8567;52.540;6.434;2024-01-06T14:22:28;3.70;;;3.60;;
16900;SDS011;8567;52.540;6.434;2024-01-06T14:24:57;4.43;;;4.22;;
16900;SDS011;8567;52.540;6.434;2024-01-06T14:27:24;4.05;;;3.85;;
16900;SDS011;8567;52.540;6.434;2024-01-06T14:29:53;3.75;;;3.58;;
16900;SDS011;8567;52.540;6.434;2024-01-06T14:32:22;3.78;;;3.58;;
16900;SDS011;8567;52.540;6.434;2024-01-06T14:34:49;3.63;;;3.53;;
16900;SDS011;8567;52.540;6.434;2024-01-06T14:37:16;4.13;;;3.92;;
16900;SDS011;8567;52.540;6.434;2024-01-06T14:39:43;4.00;;;3.83;;
16900;SDS011;8567;52.540;6.434;2024-01-06T14:42:12;3.75;;;3.63;;
16900;SDS011;8567;52.540;6.434;2024-01-06T14:44:38;4.00;;;3.83;;
16900;SDS011;8567;52.540;6.434;2024-01-06T14:47:05;4.07;;;3.88;;
16900;SDS011;8567;52.540;6.434;2024-01-06T14:49:33;3.83;;;3.67;;
16900;SDS011;8567;52.540;6.434;2024-01-06T14:52:00;3.67;;;3.55;;
16900;SDS011;8567;52.540;6.434;2024-01-06T14:54:28;3.70;;;3.55;;
16900;SDS011;8567;52.540;6.434;2024-01-06T14:56:58;3.70;;;3.55;;
16900;SDS011;8567;52.540;6.434;2024-01-06T14:59:26;3.35;;;3.25;;
16900;SDS011;8567;52.540;6.434;2024-01-06T15:01:54;4.07;;;3.90;;
16900;SDS011;8567;52.540;6.434;2024-01-06T15:04:21;3.58;;;3.42;;
16900;SDS011;8567;52.540;6.434;2024-01-06T15:06:47;3.90;;;3.72;;
16900;SDS011;8567;52.540;6.434;2024-01-06T15:09:15;3.47;;;3.38;;
16900;SDS011;8567;52.540;6.434;2024-01-06T15:11:43;4.13;;;3.92;;